sensor_id;sensor_type;location;lat;lon;timestamp;temperature;humidity
20446;DHT22;10382;49.140;9.234;2023-09-12T00:00:08;21.30;99.90
20446;DHT22;10382;49.140;9.234;2023-09-12T00:02:37;21.30;99.90
20446;DHT22;10382;49.140;9.234;2023-09-12T00:05:04;21.20;99.90
20446;DHT22;10382;49.140;9.234;2023-09-12T00:07:31;21.10;99.90
20446;DHT22;10382;49.140;9.234;2023-09-12T00:09:57;21.20;99.90
20446;DHT22;10382;49.140;9.234;2023-09-12T00:12:26;21.20;99.90
20446;DHT22;10382;49.140;9.234;2023-09-12T00:14:53;21.30;99.90
20446;DHT22;10382;49.140;9.234;2023-09-12T00:17:20;21.40;99.90
20446;DHT22;10382;49.140;9.234;2023-09-12T00:19:46;21.40;99.90
20446;DHT22;10382;49.140;9.234;2023-09-12T00:22:13;21.40;99.90
20446;DHT22;10382;49.140;9.234;2023-09-12T00:24:40;21.40;99.90
20446;DHT22;10382;49.140;9.234;2023-09-12T00:27:07;21.50;99.90
20446;DHT22;10382;49.140;9.234;2023-09-12T00:29:36;21.50;99.90
20446;DHT22;10382;49.140;9.234;2023-09-12T00:32:03;21.40;99.90
20446;DHT22;10382;49.140;9.234;2023-09-12T00:34:30;21.30;99.90
20446;DHT22;10382;49.140;9.234;2023-09-12T00:36:57;21.40;99.90
20446;DHT22;10382;49.140;9.234;2023-09-12T00:39:24;21.30;99.90
20446;DHT22;10382;49.140;9.234;2023-09-12T00:41:51;21.20;99.90
20446;DHT22;10382;49.140;9.234;2023-09-12T00:44:18;21.20;99.90
20446;DHT22;10382;49.140;9.234;2023-09-12T00:46:46;21.10;99.90
20446;DHT22;10382;49.140;9.234;2023-09-12T00:49:16;21.20;99.90
20446;DHT22;10382;49.140;9.234;2023-09-12T00:51:44;21.20;99.90
20446;DHT22;10382;49.140;9.234;2023-09-12T00:54:11;21.20;99.90
20446;DHT22;10382;49.140;9.234;2023-09-12T00:56:38;21.10;99.90
20446;DHT22;10382;49.140;9.234;2023-09-12T00:59:05;21.10;99.90
20446;DHT22;10382;49.140;9.234;2023-09-12T01:01:33;21.10;99.90
20446;DHT22;10382;49.140;9.234;2023-09-12T01:04:02;21.10;99.90
20446;DHT22;10382;49.140;9.234;2023-09-12T01:06:29;21.10;99.90
20446;DHT22;10382;49.140;9.234;2023-09-12T01:08:57;21.00;99.90
20446;DHT22;10382;49.140;9.234;2023-09-12T01:11:24;20.90;99.90
20446;DHT22;10382;49.140;9.234;2023-09-12T01:13:51;20.80;99.90
20446;DHT22;10382;49.140;9.234;2023-09-12T01:16:18;20.70;99.90
20446;DHT22;10382;49.140;9.234;2023-09-12T01:18:44;20.80;99.90
20446;DHT22;10382;49.140;9.234;2023-09-12T01:24:49;20.80;99.90
20446;DHT22;10382;49.140;9.234;2023-09-12T01:27:23;20.70;99.90
20446;DHT22;10382;49.140;9.234;2023-09-12T01:29:56;20.70;99.90
20446;DHT22;10382;49.140;9.234;2023-09-12T01:32:23;20.60;99.90
20446;DHT22;10382;49.140;9.234;2023-09-12T01:34:50;20.70;99.90
20446;DHT22;10382;49.140;9.234;2023-09-12T01:37:16;20.70;99.90
20446;DHT22;10382;49.140;9.234;2023-09-12T01:39:43;20.70;99.90
20446;DHT22;10382;49.140;9.234;2023-09-12T01:42:14;20.70;99.90
20446;DHT22;10382;49.140;9.234;2023-09-12T01:44:43;20.70;99.90
20446;DHT22;10382;49.140;9.234;2023-09-12T01:47:11;20.60;99.90
20446;DHT22;10382;49.140;9.234;2023-09-12T01:49:41;20.70;99.90
20446;DHT22;10382;49.140;9.234;2023-09-12T01:52:09;20.70;99.90
20446;DHT22;10382;49.140;9.234;2023-09-12T01:54:37;20.60;99.90
20446;DHT22;10382;49.140;9.234;2023-09-12T01:57:05;20.50;99.90
20446;DHT22;10382;49.140;9.234;2023-09-12T01:59:33;20.40;99.90
20446;DHT22;10382;49.140;9.234;2023-09-12T02:02:02;20.30;99.90
20446;DHT22;10382;49.140;9.234;2023-09-12T02:04:29;20.30;99.90
20446;DHT22;10382;49.140;9.234;2023-09-12T02:06:55;20.30;99.90
20446;DHT22;10382;49.140;9.234;2023-09-12T02:09:23;20.30;99.90
20446;DHT22;10382;49.140;9.234;2023-09-12T02:11:51;20.20;99.90
20446;DHT22;10382;49.140;9.234;2023-09-12T02:14:18;20.20;99.90
20446;DHT22;10382;49.140;9.234;2023-09-12T02:16:44;20.30;99.90
20446;DHT22;10382;49.140;9.234;2023-09-12T02:19:13;20.20;99.90
20446;DHT22;10382;49.140;9.234;2023-09-12T02:21:42;20.20;99.90
20446;DHT22;10382;49.140;9.234;2023-09-12T02:24:09;20.30;99.90
20446;DHT22;10382;49.140;9.234;2023-09-12T02:26:36;20.30;99.90
20446;DHT22;10382;49.140;9.234;2023-09-12T02:29:04;20.30;99.90
20446;DHT22;10382;49.140;9.234;2023-09-12T02:31:32;20.30;99.90
20446;DHT22;10382;49.140;9.234;2023-09-12T02:33:59;20.30;99.90
20446;DHT22;10382;49.140;9.234;2023-09-12T02:36:28;20.30;99.90
20446;DHT22;10382;49.140;9.234;2023-09-12T02:38:55;20.30;99.90
20446;DHT22;10382;49.140;9.234;2023-09-12T02:41:21;20.20;99.90
20446;DHT22;10382;49.140;9.234;2023-09-12T02:43:49;20.20;99.90
20446;DHT22;10382;49.140;9.234;2023-09-12T02:46:15;20.10;99.90
20446;DHT22;10382;49.140;9.234;2023-09-12T02:48:42;20.10;99.90
20446;DHT22;10382;49.140;9.234;2023-09-12T02:51:09;20.00;99.90
20446;DHT22;10382;49.140;9.234;2023-09-12T02:53:37;20.00;99.90
20446;DHT22;10382;49.140;9.234;2023-09-12T02:56:04;20.00;99.90
20446;DHT22;10382;49.140;9.234;2023-09-12T02:58:31;20.10;99.90
20446;DHT22;10382;49.140;9.234;2023-09-12T03:00:58;20.10;99.90
20446;DHT22;10382;49.140;9.234;2023-09-12T03:03:25;20.20;99.90
20446;DHT22;10382;49.140;9.234;2023-09-12T03:05:57;20.30;99.90
20446;DHT22;10382;49.140;9.234;2023-09-12T03:08:23;20.40;99.90
20446;DHT22;10382;49.140;9.234;2023-09-12T03:10:54;20.30;99.90
20446;DHT22;10382;49.140;9.234;2023-09-12T03:13:22;20.30;99.90
20446;DHT22;10382;49.140;9.234;2023-09-12T03:15:49;20.30;99.90
20446;DHT22;10382;49.140;9.234;2023-09-12T03:18:16;20.10;99.90
20446;DHT22;10382;49.140;9.234;2023-09-12T03:20:43;20.00;99.90
20446;DHT22;10382;49.140;9.234;2023-09-12T03:23:10;20.00;99.90
20446;DHT22;10382;49.140;9.234;2023-09-12T03:25:37;20.00;99.90
20446;DHT22;10382;49.140;9.234;2023-09-12T03:28:06;20.10;99.90
20446;DHT22;10382;49.140;9.234;2023-09-12T03:30:33;20.10;99.90
20446;DHT22;10382;49.140;9.234;2023-09-12T03:33:00;20.20;99.90
20446;DHT22;10382;49.140;9.234;2023-09-12T03:35:28;20.20;99.90
20446;DHT22;10382;49.140;9.234;2023-09-12T03:37:55;20.30;99.90
20446;DHT22;10382;49.140;9.234;2023-09-12T03:40:22;20.40;99.90
20446;DHT22;10382;49.140;9.234;2023-09-12T03:42:49;20.50;99.90
20446;DHT22;10382;49.140;9.234;2023-09-12T03:45:17;20.40;99.90
20446;DHT22;10382;49.140;9.234;2023-09-12T03:47:44;20.30;99.90
20446;DHT22;10382;49.140;9.234;2023-09-12T03:50:12;20.30;99.90
20446;DHT22;10382;49.140;9.234;2023-09-12T03:52:39;20.20;99.90
20446;DHT22;10382;49.140;9.234;2023-09-12T03:55:07;20.10;99.90
20446;DHT22;10382;49.140;9.234;2023-09-12T03:57:34;20.00;99.90
20446;DHT22;10382;49.140;9.234;2023-09-12T04:00:01;19.90;99.90
20446;DHT22;10382;49.140;9.234;2023-09-12T04:02:31;19.90;99.90
20446;DHT22;10382;49.140;9.234;2023-09-12T04:04:58;20.00;99.90
20446;DHT22;10382;49.140;9.234;2023-09-12T04:07:25;19.90;99.90
20446;DHT22;10382;49.140;9.234;2023-09-12T04:09:52;19.90;99.90
20446;DHT22;10382;49.140;9.234;2023-09-12T04:12:19;19.90;99.90
20446;DHT22;10382;49.140;9.234;2023-09-12T04:14:49;19.80;99.90
20446;DHT22;10382;49.140;9.234;2023-09-12T04:17:15;19.80;99.90
20446;DHT22;10382;49.140;9.234;2023-09-12T04:19:44;19.70;99.90
20446;DHT22;10382;49.140;9.234;2023-09-12T04:22:10;19.70;99.90
20446;DHT22;10382;49.140;9.234;2023-09-12T04:24:37;19.70;99.90
20446;DHT22;10382;49.140;9.234;2023-09-12T04:27:04;19.60;99.90
20446;DHT22;10382;49.140;9.234;2023-09-12T04:29:32;19.80;99.90
20446;DHT22;10382;49.140;9.234;2023-09-12T04:32:01;19.90;99.90
20446;DHT22;10382;49.140;9.234;2023-09-12T04:34:28;20.00;99.90
20446;DHT22;10382;49.140;9.234;2023-09-12T04:36:57;20.10;99.90
20446;DHT22;10382;49.140;9.234;2023-09-12T04:39:24;20.30;99.90
20446;DHT22;10382;49.140;9.234;2023-09-12T04:41:51;20.40;99.90
20446;DHT22;10382;49.140;9.234;2023-09-12T04:44:17;20.40;99.90
20446;DHT22;10382;49.140;9.234;2023-09-12T04:46:44;20.50;99.90
20446;DHT22;10382;49.140;9.234;2023-09-12T04:49:11;20.60;99.90
20446;DHT22;10382;49.140;9.234;2023-09-12T04:51:38;20.60;99.90
20446;DHT22;10382;49.140;9.234;2023-09-12T04:54:06;20.60;99.90
20446;DHT22;10382;49.140;9.234;2023-09-12T04:56:33;20.50;99.90
20446;DHT22;10382;49.140;9.234;2023-09-12T04:59:00;20.50;99.90
20446;DHT22;10382;49.140;9.234;2023-09-12T05:01:27;20.60;99.90
20446;DHT22;10382;49.140;9.234;2023-09-12T05:03:54;20.60;99.90
20446;DHT22;10382;49.140;9.234;2023-09-12T05:06:21;20.60;99.90
20446;DHT22;10382;49.140;9.234;2023-09-12T05:08:48;20.70;99.90
20446;DHT22;10382;49.140;9.234;2023-09-12T05:11:17;20.80;99.90
20446;DHT22;10382;49.140;9.234;2023-09-12T05:13:44;20.80;99.90
20446;DHT22;10382;49.140;9.234;2023-09-12T05:16:10;20.70;99.90
20446;DHT22;10382;49.140;9.234;2023-09-12T05:18:37;20.50;99.90
20446;DHT22;10382;49.140;9.234;2023-09-12T05:21:04;20.40;99.90
20446;DHT22;10382;49.140;9.234;2023-09-12T05:23:31;20.30;99.90
20446;DHT22;10382;49.140;9.234;2023-09-12T05:25:58;20.30;99.90
20446;DHT22;10382;49.140;9.234;2023-09-12T05:28:26;20.30;99.90
20446;DHT22;10382;49.140;9.234;2023-09-12T05:30:53;20.40;99.90
20446;DHT22;10382;49.140;9.234;2023-09-12T05:33:20;20.40;99.90
20446;DHT22;10382;49.140;9.234;2023-09-12T05:35:47;20.40;99.90
20446;DHT22;10382;49.140;9.234;2023-09-12T05:38:13;20.50;99.90
20446;DHT22;10382;49.140;9.234;2023-09-12T05:40:40;20.60;99.90
20446;DHT22;10382;49.140;9.234;2023-09-12T05:43:07;20.60;99.90
20446;DHT22;10382;49.140;9.234;2023-09-12T05:45:35;20.80;99.90
20446;DHT22;10382;49.140;9.234;2023-09-12T05:48:02;20.90;99.90
20446;DHT22;10382;49.140;9.234;2023-09-12T05:50:30;21.00;99.90
20446;DHT22;10382;49.140;9.234;2023-09-12T05:52:57;21.00;99.90
20446;DHT22;10382;49.140;9.234;2023-09-12T05:55:23;21.10;99.90
20446;DHT22;10382;49.140;9.234;2023-09-12T05:57:50;21.20;99.90
20446;DHT22;10382;49.140;9.234;2023-09-12T06:00:18;21.30;99.90
20446;DHT22;10382;49.140;9.234;2023-09-12T06:02:47;21.50;99.90
20446;DHT22;10382;49.140;9.234;2023-09-12T06:05:14;21.70;99.90
20446;DHT22;10382;49.140;9.234;2023-09-12T06:07:41;21.70;99.90
20446;DHT22;10382;49.140;9.234;2023-09-12T06:10:09;21.80;99.90
20446;DHT22;10382;49.140;9.234;2023-09-12T06:12:36;21.90;99.90
20446;DHT22;10382;49.140;9.234;2023-09-12T06:15:03;21.90;99.90
20446;DHT22;10382;49.140;9.234;2023-09-12T06:17:30;22.00;99.90
20446;DHT22;10382;49.140;9.234;2023-09-12T06:19:59;22.00;99.90
20446;DHT22;10382;49.140;9.234;2023-09-12T06:22:25;22.10;99.90
20446;DHT22;10382;49.140;9.234;2023-09-12T06:24:52;22.10;99.90
20446;DHT22;10382;49.140;9.234;2023-09-12T06:27:19;22.20;99.90
20446;DHT22;10382;49.140;9.234;2023-09-12T06:29:46;22.20;99.90
20446;DHT22;10382;49.140;9.234;2023-09-12T06:32:14;22.30;99.90
20446;DHT22;10382;49.140;9.234;2023-09-12T06:34:40;22.40;99.90
20446;DHT22;10382;49.140;9.234;2023-09-12T06:37:10;22.50;99.90
20446;DHT22;10382;49.140;9.234;2023-09-12T06:39:37;22.50;99.90
20446;DHT22;10382;49.140;9.234;2023-09-12T06:42:04;22.70;99.90
20446;DHT22;10382;49.140;9.234;2023-09-12T06:44:31;22.70;99.90
20446;DHT22;10382;49.140;9.234;2023-09-12T06:46:58;22.80;99.90
20446;DHT22;10382;49.140;9.234;2023-09-12T06:49:25;22.80;99.90
20446;DHT22;10382;49.140;9.234;2023-09-12T06:51:51;22.90;99.90
20446;DHT22;10382;49.140;9.234;2023-09-12T06:54:20;23.00;99.90
20446;DHT22;10382;49.140;9.234;2023-09-12T06:56:46;23.10;99.90
20446;DHT22;10382;49.140;9.234;2023-09-12T06:59:14;23.20;99.90
20446;DHT22;10382;49.140;9.234;2023-09-12T07:01:40;23.30;99.90
20446;DHT22;10382;49.140;9.234;2023-09-12T07:04:09;23.40;99.90
20446;DHT22;10382;49.140;9.234;2023-09-12T07:06:35;23.40;99.90
20446;DHT22;10382;49.140;9.234;2023-09-12T07:09:02;23.50;99.90
20446;DHT22;10382;49.140;9.234;2023-09-12T07:11:31;23.50;99.90
20446;DHT22;10382;49.140;9.234;2023-09-12T07:13:58;23.60;99.90
20446;DHT22;10382;49.140;9.234;2023-09-12T07:16:25;23.60;99.90
20446;DHT22;10382;49.140;9.234;2023-09-12T07:18:52;23.30;99.90
20446;DHT22;10382;49.140;9.234;2023-09-12T07:21:19;23.40;99.90
20446;DHT22;10382;49.140;9.234;2023-09-12T07:23:47;23.50;99.90
20446;DHT22;10382;49.140;9.234;2023-09-12T07:26:14;23.50;99.90
20446;DHT22;10382;49.140;9.234;2023-09-12T07:28:42;23.50;99.90
20446;DHT22;10382;49.140;9.234;2023-09-12T07:31:09;23.70;99.90
20446;DHT22;10382;49.140;9.234;2023-09-12T07:33:36;23.80;99.90
20446;DHT22;10382;49.140;9.234;2023-09-12T07:36:04;24.00;99.90
20446;DHT22;10382;49.140;9.234;2023-09-12T07:38:31;24.10;99.90
20446;DHT22;10382;49.140;9.234;2023-09-12T07:40:58;24.10;99.90
20446;DHT22;10382;49.140;9.234;2023-09-12T07:43:26;24.20;99.90
20446;DHT22;10382;49.140;9.234;2023-09-12T07:45:56;24.40;99.90
20446;DHT22;10382;49.140;9.234;2023-09-12T07:48:23;24.50;99.90
20446;DHT22;10382;49.140;9.234;2023-09-12T07:50:50;24.70;99.90
20446;DHT22;10382;49.140;9.234;2023-09-12T07:53:18;24.90;99.90
20446;DHT22;10382;49.140;9.234;2023-09-12T07:55:44;25.20;99.90
20446;DHT22;10382;49.140;9.234;2023-09-12T07:58:12;25.50;99.90
20446;DHT22;10382;49.140;9.234;2023-09-12T08:00:39;25.80;99.90
20446;DHT22;10382;49.140;9.234;2023-09-12T08:03:08;26.00;99.90
20446;DHT22;10382;49.140;9.234;2023-09-12T08:05:35;26.30;99.90
20446;DHT22;10382;49.140;9.234;2023-09-12T08:08:04;26.30;99.90
20446;DHT22;10382;49.140;9.234;2023-09-12T08:10:31;26.50;99.90
20446;DHT22;10382;49.140;9.234;2023-09-12T08:12:57;26.70;99.90
20446;DHT22;10382;49.140;9.234;2023-09-12T08:15:24;26.80;99.90
20446;DHT22;10382;49.140;9.234;2023-09-12T08:17:51;27.00;99.90
20446;DHT22;10382;49.140;9.234;2023-09-12T08:20:20;27.10;99.90
20446;DHT22;10382;49.140;9.234;2023-09-12T08:22:47;27.20;99.90
20446;DHT22;10382;49.140;9.234;2023-09-12T08:25:14;27.40;99.90
20446;DHT22;10382;49.140;9.234;2023-09-12T08:27:41;27.50;99.90
20446;DHT22;10382;49.140;9.234;2023-09-12T08:30:10;27.70;99.90
20446;DHT22;10382;49.140;9.234;2023-09-12T08:32:38;27.80;99.90
20446;DHT22;10382;49.140;9.234;2023-09-12T08:35:09;27.90;99.90
20446;DHT22;10382;49.140;9.234;2023-09-12T08:37:39;28.10;99.90
20446;DHT22;10382;49.140;9.234;2023-09-12T08:40:07;28.30;99.90
20446;DHT22;10382;49.140;9.234;2023-09-12T08:42:39;28.50;99.90
20446;DHT22;10382;49.140;9.234;2023-09-12T08:45:11;28.70;99.90
20446;DHT22;10382;49.140;9.234;2023-09-12T08:47:39;28.90;99.90
20446;DHT22;10382;49.140;9.234;2023-09-12T08:50:10;29.10;99.90
20446;DHT22;10382;49.140;9.234;2023-09-12T08:52:39;29.20;99.90
20446;DHT22;10382;49.140;9.234;2023-09-12T08:55:06;29.50;99.90
20446;DHT22;10382;49.140;9.234;2023-09-12T08:57:33;29.60;99.90
20446;DHT22;10382;49.140;9.234;2023-09-12T09:00:02;29.70;99.90
20446;DHT22;10382;49.140;9.234;2023-09-12T09:02:32;29.90;99.90
20446;DHT22;10382;49.140;9.234;2023-09-12T09:05:00;30.00;99.90
20446;DHT22;10382;49.140;9.234;2023-09-12T09:07:31;30.20;99.90
20446;DHT22;10382;49.140;9.234;2023-09-12T09:10:02;30.40;99.90
20446;DHT22;10382;49.140;9.234;2023-09-12T09:12:29;30.50;99.90
20446;DHT22;10382;49.140;9.234;2023-09-12T09:14:56;30.60;99.90
20446;DHT22;10382;49.140;9.234;2023-09-12T09:17:23;30.70;99.90
20446;DHT22;10382;49.140;9.234;2023-09-12T09:19:50;30.70;99.90
20446;DHT22;10382;49.140;9.234;2023-09-12T09:22:17;30.90;99.90
20446;DHT22;10382;49.140;9.234;2023-09-12T09:24:44;31.00;99.90
20446;DHT22;10382;49.140;9.234;2023-09-12T09:27:12;31.20;99.90
20446;DHT22;10382;49.140;9.234;2023-09-12T09:29:58;31.40;99.90
20446;DHT22;10382;49.140;9.234;2023-09-12T09:32:25;31.60;99.90
20446;DHT22;10382;49.140;9.234;2023-09-12T09:34:52;31.60;99.80
20446;DHT22;10382;49.140;9.234;2023-09-12T09:37:19;31.70;99.80
20446;DHT22;10382;49.140;9.234;2023-09-12T09:39:48;31.70;99.00
20446;DHT22;10382;49.140;9.234;2023-09-12T09:42:19;31.80;99.10
20446;DHT22;10382;49.140;9.234;2023-09-12T09:44:46;31.80;98.70
20446;DHT22;10382;49.140;9.234;2023-09-12T09:47:14;31.70;98.30
20446;DHT22;10382;49.140;9.234;2023-09-12T09:49:41;31.70;98.70
20446;DHT22;10382;49.140;9.234;2023-09-12T09:52:12;31.80;97.90
20446;DHT22;10382;49.140;9.234;2023-09-12T09:54:43;31.80;97.80
20446;DHT22;10382;49.140;9.234;2023-09-12T09:57:11;31.90;98.10
20446;DHT22;10382;49.140;9.234;2023-09-12T09:59:39;32.00;97.70
20446;DHT22;10382;49.140;9.234;2023-09-12T10:02:11;32.10;97.40
20446;DHT22;10382;49.140;9.234;2023-09-12T10:04:44;32.20;96.50
20446;DHT22;10382;49.140;9.234;2023-09-12T10:07:11;32.20;96.10
20446;DHT22;10382;49.140;9.234;2023-09-12T10:09:38;32.20;95.40
20446;DHT22;10382;49.140;9.234;2023-09-12T10:12:07;32.30;95.20
20446;DHT22;10382;49.140;9.234;2023-09-12T10:14:34;32.50;94.30
20446;DHT22;10382;49.140;9.234;2023-09-12T10:17:04;32.40;94.10
20446;DHT22;10382;49.140;9.234;2023-09-12T10:19:37;32.40;93.80
20446;DHT22;10382;49.140;9.234;2023-09-12T10:22:09;32.30;94.80
20446;DHT22;10382;49.140;9.234;2023-09-12T10:24:37;32.30;93.50
20446;DHT22;10382;49.140;9.234;2023-09-12T10:27:06;32.30;94.20
20446;DHT22;10382;49.140;9.234;2023-09-12T10:29:34;32.50;93.80
20446;DHT22;10382;49.140;9.234;2023-09-12T10:32:02;32.50;93.40
20446;DHT22;10382;49.140;9.234;2023-09-12T10:34:30;32.70;93.40
20446;DHT22;10382;49.140;9.234;2023-09-12T10:36:58;32.80;92.50
20446;DHT22;10382;49.140;9.234;2023-09-12T10:39:27;32.90;92.50
20446;DHT22;10382;49.140;9.234;2023-09-12T10:41:54;32.90;92.50
20446;DHT22;10382;49.140;9.234;2023-09-12T10:44:21;33.00;91.80
20446;DHT22;10382;49.140;9.234;2023-09-12T10:46:50;33.10;91.00
20446;DHT22;10382;49.140;9.234;2023-09-12T10:49:19;33.10;90.50
20446;DHT22;10382;49.140;9.234;2023-09-12T10:51:47;33.10;90.70
20446;DHT22;10382;49.140;9.234;2023-09-12T10:54:15;33.20;90.50
20446;DHT22;10382;49.140;9.234;2023-09-12T10:56:42;33.20;91.10
20446;DHT22;10382;49.140;9.234;2023-09-12T10:59:14;33.30;90.30
20446;DHT22;10382;49.140;9.234;2023-09-12T11:01:42;33.10;90.60
20446;DHT22;10382;49.140;9.234;2023-09-12T11:04:32;33.20;90.30
20446;DHT22;10382;49.140;9.234;2023-09-12T11:07:32;33.20;90.10
20446;DHT22;10382;49.140;9.234;2023-09-12T11:10:16;33.20;90.60
20446;DHT22;10382;49.140;9.234;2023-09-12T11:12:45;33.20;88.70
20446;DHT22;10382;49.140;9.234;2023-09-12T11:15:13;33.30;89.80
20446;DHT22;10382;49.140;9.234;2023-09-12T11:17:41;33.50;89.70
20446;DHT22;10382;49.140;9.234;2023-09-12T11:20:09;33.70;89.10
20446;DHT22;10382;49.140;9.234;2023-09-12T11:22:39;33.80;86.60
20446;DHT22;10382;49.140;9.234;2023-09-12T11:25:16;34.00;84.90
20446;DHT22;10382;49.140;9.234;2023-09-12T11:28:03;34.20;84.60
20446;DHT22;10382;49.140;9.234;2023-09-12T11:30:30;34.30;82.70
20446;DHT22;10382;49.140;9.234;2023-09-12T11:32:58;34.30;83.30
20446;DHT22;10382;49.140;9.234;2023-09-12T11:35:28;34.30;82.60
20446;DHT22;10382;49.140;9.234;2023-09-12T11:37:58;34.40;83.00
20446;DHT22;10382;49.140;9.234;2023-09-12T11:40:42;34.30;82.70
20446;DHT22;10382;49.140;9.234;2023-09-12T11:43:19;34.20;82.90
20446;DHT22;10382;49.140;9.234;2023-09-12T11:45:47;34.10;82.00
20446;DHT22;10382;49.140;9.234;2023-09-12T11:48:14;34.10;82.60
20446;DHT22;10382;49.140;9.234;2023-09-12T11:50:41;34.30;81.70
20446;DHT22;10382;49.140;9.234;2023-09-12T11:53:10;34.20;82.10
20446;DHT22;10382;49.140;9.234;2023-09-12T11:55:43;34.30;80.20
20446;DHT22;10382;49.140;9.234;2023-09-12T11:58:10;34.30;81.90
20446;DHT22;10382;49.140;9.234;2023-09-12T12:00:37;34.40;80.90
20446;DHT22;10382;49.140;9.234;2023-09-12T12:03:09;34.50;80.60
20446;DHT22;10382;49.140;9.234;2023-09-12T12:05:36;34.70;80.20
20446;DHT22;10382;49.140;9.234;2023-09-12T12:08:04;34.90;80.10
20446;DHT22;10382;49.140;9.234;2023-09-12T12:10:32;35.10;79.00
20446;DHT22;10382;49.140;9.234;2023-09-12T12:12:59;35.20;79.30
20446;DHT22;10382;49.140;9.234;2023-09-12T12:15:27;35.30;77.30
20446;DHT22;10382;49.140;9.234;2023-09-12T12:17:54;35.50;75.70
20446;DHT22;10382;49.140;9.234;2023-09-12T12:20:22;35.30;75.60
20446;DHT22;10382;49.140;9.234;2023-09-12T12:22:49;35.20;74.30
20446;DHT22;10382;49.140;9.234;2023-09-12T12:25:17;35.00;74.00
20446;DHT22;10382;49.140;9.234;2023-09-12T12:27:45;34.80;74.40
20446;DHT22;10382;49.140;9.234;2023-09-12T12:30:13;34.50;75.60
20446;DHT22;10382;49.140;9.234;2023-09-12T12:32:40;34.30;76.20
20446;DHT22;10382;49.140;9.234;2023-09-12T12:35:07;34.10;76.90
20446;DHT22;10382;49.140;9.234;2023-09-12T12:37:36;33.90;78.70
20446;DHT22;10382;49.140;9.234;2023-09-12T12:40:04;33.80;80.90
20446;DHT22;10382;49.140;9.234;2023-09-12T12:42:37;33.70;78.90
20446;DHT22;10382;49.140;9.234;2023-09-12T12:45:12;33.50;79.70
20446;DHT22;10382;49.140;9.234;2023-09-12T12:47:39;33.40;82.90
20446;DHT22;10382;49.140;9.234;2023-09-12T12:50:08;33.40;83.70
20446;DHT22;10382;49.140;9.234;2023-09-12T12:52:35;33.30;81.10
20446;DHT22;10382;49.140;9.234;2023-09-12T12:55:04;33.20;83.10
20446;DHT22;10382;49.140;9.234;2023-09-12T12:57:31;33.10;83.00
20446;DHT22;10382;49.140;9.234;2023-09-12T12:59:58;33.00;83.60
20446;DHT22;10382;49.140;9.234;2023-09-12T13:02:27;33.10;83.60
20446;DHT22;10382;49.140;9.234;2023-09-12T13:04:54;33.00;82.50
20446;DHT22;10382;49.140;9.234;2023-09-12T13:07:21;33.00;83.70
20446;DHT22;10382;49.140;9.234;2023-09-12T13:09:47;33.00;82.00
20446;DHT22;10382;49.140;9.234;2023-09-12T13:12:14;33.20;81.80
20446;DHT22;10382;49.140;9.234;2023-09-12T13:14:43;33.40;80.60
20446;DHT22;10382;49.140;9.234;2023-09-12T13:17:10;33.50;78.90
20446;DHT22;10382;49.140;9.234;2023-09-12T13:19:39;33.50;75.10
20446;DHT22;10382;49.140;9.234;2023-09-12T13:22:05;33.30;75.20
20446;DHT22;10382;49.140;9.234;2023-09-12T13:24:32;33.20;73.00
20446;DHT22;10382;49.140;9.234;2023-09-12T13:26:59;33.20;74.40
20446;DHT22;10382;49.140;9.234;2023-09-12T13:29:26;33.10;74.40
20446;DHT22;10382;49.140;9.234;2023-09-12T13:31:53;33.00;76.50
20446;DHT22;10382;49.140;9.234;2023-09-12T13:34:19;33.00;78.30
20446;DHT22;10382;49.140;9.234;2023-09-12T13:36:48;33.10;76.60
20446;DHT22;10382;49.140;9.234;2023-09-12T13:39:14;33.30;76.10
20446;DHT22;10382;49.140;9.234;2023-09-12T13:41:43;33.50;70.50
20446;DHT22;10382;49.140;9.234;2023-09-12T13:44:10;33.80;68.90
20446;DHT22;10382;49.140;9.234;2023-09-12T13:46:37;34.10;68.80
20446;DHT22;10382;49.140;9.234;2023-09-12T13:49:04;34.20;68.10
20446;DHT22;10382;49.140;9.234;2023-09-12T13:51:31;34.30;66.20
20446;DHT22;10382;49.140;9.234;2023-09-12T13:53:59;34.40;64.60
20446;DHT22;10382;49.140;9.234;2023-09-12T13:56:26;34.40;62.70
20446;DHT22;10382;49.140;9.234;2023-09-12T13:58:53;34.40;63.80
20446;DHT22;10382;49.140;9.234;2023-09-12T14:01:21;34.40;63.60
20446;DHT22;10382;49.140;9.234;2023-09-12T14:03:48;34.50;63.40
20446;DHT22;10382;49.140;9.234;2023-09-12T14:06:15;34.60;63.80
20446;DHT22;10382;49.140;9.234;2023-09-12T14:08:42;34.60;61.40
20446;DHT22;10382;49.140;9.234;2023-09-12T14:11:10;34.70;60.80
20446;DHT22;10382;49.140;9.234;2023-09-12T14:13:37;34.70;60.00
20446;DHT22;10382;49.140;9.234;2023-09-12T14:16:04;34.60;61.00
20446;DHT22;10382;49.140;9.234;2023-09-12T14:18:31;34.50;59.70
20446;DHT22;10382;49.140;9.234;2023-09-12T14:20:58;34.50;59.70
20446;DHT22;10382;49.140;9.234;2023-09-12T14:23:24;34.50;60.30
20446;DHT22;10382;49.140;9.234;2023-09-12T14:25:51;34.60;59.20
20446;DHT22;10382;49.140;9.234;2023-09-12T14:28:19;34.70;59.70
20446;DHT22;10382;49.140;9.234;2023-09-12T14:30:46;34.80;60.10
20446;DHT22;10382;49.140;9.234;2023-09-12T14:33:15;34.90;60.10
20446;DHT22;10382;49.140;9.234;2023-09-12T14:35:43;35.10;60.00
20446;DHT22;10382;49.140;9.234;2023-09-12T14:38:10;35.30;59.60
20446;DHT22;10382;49.140;9.234;2023-09-12T14:40:37;35.50;58.50
20446;DHT22;10382;49.140;9.234;2023-09-12T14:43:05;35.60;58.30
20446;DHT22;10382;49.140;9.234;2023-09-12T14:45:34;35.80;58.10
20446;DHT22;10382;49.140;9.234;2023-09-12T14:48:01;35.90;58.30
20446;DHT22;10382;49.140;9.234;2023-09-12T14:50:28;36.10;57.80
20446;DHT22;10382;49.140;9.234;2023-09-12T14:52:55;36.30;58.00
20446;DHT22;10382;49.140;9.234;2023-09-12T14:55:22;36.50;57.50
20446;DHT22;10382;49.140;9.234;2023-09-12T14:57:49;36.70;56.40
20446;DHT22;10382;49.140;9.234;2023-09-12T15:00:16;36.90;56.00
20446;DHT22;10382;49.140;9.234;2023-09-12T15:02:44;37.00;56.90
20446;DHT22;10382;49.140;9.234;2023-09-12T15:05:11;37.10;55.00
20446;DHT22;10382;49.140;9.234;2023-09-12T15:07:38;37.10;54.20
20446;DHT22;10382;49.140;9.234;2023-09-12T15:10:05;37.20;56.20
20446;DHT22;10382;49.140;9.234;2023-09-12T15:12:32;37.20;55.00
20446;DHT22;10382;49.140;9.234;2023-09-12T15:15:03;37.30;56.20
20446;DHT22;10382;49.140;9.234;2023-09-12T15:17:31;37.50;55.50
20446;DHT22;10382;49.140;9.234;2023-09-12T15:19:59;37.60;54.40
20446;DHT22;10382;49.140;9.234;2023-09-12T15:22:26;37.30;54.50
20446;DHT22;10382;49.140;9.234;2023-09-12T15:24:54;36.90;54.50
20446;DHT22;10382;49.140;9.234;2023-09-12T15:27:21;36.70;54.70
20446;DHT22;10382;49.140;9.234;2023-09-12T15:29:48;36.60;56.10
20446;DHT22;10382;49.140;9.234;2023-09-12T15:32:16;36.70;55.20
20446;DHT22;10382;49.140;9.234;2023-09-12T15:34:44;36.60;55.50
20446;DHT22;10382;49.140;9.234;2023-09-12T15:37:13;36.30;54.30